createdAt,value
2024-01-26T00:01:15.003Z,6.40
2024-01-26T00:03:42.771Z,5.20
2024-01-26T00:06:10.364Z,5.07
2024-01-26T00:08:37.886Z,5.23
2024-01-26T00:11:05.548Z,6.03
2024-01-26T00:13:33.263Z,5.60
2024-01-26T00:16:00.694Z,6.00
2024-01-26T00:18:28.264Z,5.83
2024-01-26T00:20:55.663Z,5.93
2024-01-26T00:23:23.048Z,6.77
2024-01-26T00:25:50.511Z,5.80
2024-01-26T00:28:17.921Z,6.90
2024-01-26T00:30:45.530Z,5.83
2024-01-26T00:33:13.604Z,6.20
2024-01-26T00:35:41.156Z,6.80
2024-01-26T00:38:08.585Z,6.43
2024-01-26T00:40:35.982Z,7.57
2024-01-26T00:43:03.442Z,7.03
2024-01-26T00:45:30.885Z,7.07
2024-01-26T00:47:58.354Z,7.10
2024-01-26T00:50:26.600Z,7.07
2024-01-26T00:52:54.098Z,7.37
2024-01-26T00:55:21.570Z,7.77
2024-01-26T00:57:48.944Z,8.13
2024-01-26T01:00:17.899Z,7.00
2024-01-26T01:02:45.371Z,7.47
2024-01-26T01:05:12.849Z,6.93
2024-01-26T01:07:40.230Z,7.37
2024-01-26T01:10:09.033Z,6.87
2024-01-26T01:12:36.459Z,6.60
2024-01-26T01:15:05.417Z,6.70
2024-01-26T01:17:33.823Z,7.50
2024-01-26T01:20:01.329Z,7.70
2024-01-26T01:22:29.470Z,7.77
2024-01-26T01:24:56.892Z,6.43
2024-01-26T01:27:24.208Z,6.20
2024-01-26T01:29:51.869Z,6.33
2024-01-26T01:32:19.228Z,6.73
2024-01-26T01:34:46.610Z,6.90
2024-01-26T01:37:13.962Z,7.23
2024-01-26T01:39:41.381Z,6.73
2024-01-26T01:42:15.513Z,7.57
2024-01-26T01:44:47.261Z,7.83
2024-01-26T01:47:16.934Z,7.37
2024-01-26T01:49:45.844Z,6.47
2024-01-26T01:52:17.843Z,6.70
2024-01-26T01:54:46.126Z,7.13
2024-01-26T01:57:16.233Z,8.03
2024-01-26T01:59:43.589Z,7.07
2024-01-26T02:02:11.067Z,8.40
2024-01-26T02:04:38.858Z,7.40
2024-01-26T02:07:06.909Z,7.20
2024-01-26T02:09:34.439Z,7.53
2024-01-26T02:12:02.051Z,7.67
2024-01-26T02:14:29.531Z,8.53
2024-01-26T02:17:02.831Z,9.00
2024-01-26T02:19:33.843Z,8.07
2024-01-26T02:22:01.206Z,8.00
2024-01-26T02:24:28.538Z,9.63
2024-01-26T02:26:56.049Z,8.70
2024-01-26T02:29:23.479Z,8.00
2024-01-26T02:31:50.963Z,7.17
2024-01-26T02:34:18.719Z,8.03
2024-01-26T02:36:46.258Z,6.20
2024-01-26T02:39:13.633Z,6.03
2024-01-26T02:41:41.993Z,8.07
2024-01-26T02:44:10.743Z,7.77
2024-01-26T02:46:38.228Z,6.53
2024-01-26T02:49:07.517Z,8.43
2024-01-26T02:51:34.906Z,8.43
2024-01-26T02:54:04.242Z,6.97
2024-01-26T02:56:31.757Z,8.07
2024-01-26T02:58:59.171Z,6.10
2024-01-26T03:01:26.806Z,5.97
2024-01-26T03:03:54.570Z,6.60
2024-01-26T03:06:22.089Z,7.30
2024-01-26T03:08:49.716Z,8.43
2024-01-26T03:11:17.138Z,11.07
2024-01-26T03:13:44.464Z,9.63
2024-01-26T03:16:12.640Z,9.63
2024-01-26T03:18:40.241Z,8.70
2024-01-26T03:21:07.715Z,9.40
2024-01-26T03:23:35.276Z,7.80
2024-01-26T03:26:02.633Z,8.37
2024-01-26T03:28:31.240Z,7.67
2024-01-26T03:30:58.624Z,7.53
2024-01-26T03:33:26.231Z,7.77
2024-01-26T03:35:56.627Z,8.97
2024-01-26T03:38:24.142Z,7.43
2024-01-26T03:40:51.461Z,7.33
2024-01-26T03:43:19.181Z,8.30
2024-01-26T03:45:46.515Z,7.00
2024-01-26T03:48:15.363Z,7.23
2024-01-26T03:50:42.830Z,7.07
2024-01-26T03:53:10.272Z,7.67
2024-01-26T03:55:39.146Z,7.30
2024-01-26T03:58:06.563Z,9.80
2024-01-26T04:00:34.040Z,8.80
2024-01-26T04:03:02.125Z,8.17
2024-01-26T04:05:29.515Z,8.03
2024-01-26T04:07:56.982Z,9.33
2024-01-26T04:10:24.417Z,8.70
2024-01-26T04:12:51.780Z,10.27
2024-01-26T04:15:20.331Z,10.27
2024-01-26T04:17:47.820Z,12.20
2024-01-26T04:20:15.911Z,8.27
2024-01-26T04:22:44.350Z,9.93
2024-01-26T04:25:12.757Z,8.60
2024-01-26T04:27:40.157Z,9.80
2024-01-26T04:30:08.662Z,9.43
2024-01-26T04:32:38.180Z,9.10
2024-01-26T04:35:06.514Z,8.13
2024-01-26T04:37:34.197Z,9.00
2024-01-26T04:40:01.594Z,8.10
2024-01-26T04:42:29.082Z,8.73
2024-01-26T04:44:57.753Z,9.57
2024-01-26T04:47:25.344Z,9.10
2024-01-26T04:49:52.913Z,9.37
2024-01-26T04:52:20.318Z,10.33
2024-01-26T04:54:48.459Z,10.60
2024-01-26T04:57:16.134Z,11.13
2024-01-26T04:59:43.631Z,9.27
2024-01-26T05:02:11.203Z,10.83
2024-01-26T05:04:38.616Z,9.63
2024-01-26T05:07:06.284Z,9.80
2024-01-26T05:09:33.899Z,10.10
2024-01-26T05:12:01.491Z,11.90
2024-01-26T05:14:28.936Z,10.27
2024-01-26T05:16:56.338Z,7.63
2024-01-26T05:19:23.775Z,11.33
2024-01-26T05:21:51.240Z,9.43
2024-01-26T05:24:18.621Z,12.00
2024-01-26T05:26:46.618Z,10.70
2024-01-26T05:29:16.168Z,10.97
2024-01-26T05:31:43.682Z,11.07
2024-01-26T05:34:11.252Z,10.50
2024-01-26T05:36:43.391Z,10.40
2024-01-26T05:39:12.043Z,9.97
2024-01-26T05:41:39.892Z,10.50
2024-01-26T05:44:08.050Z,9.93
2024-01-26T05:46:35.561Z,9.67
2024-01-26T05:49:06.399Z,11.10
2024-01-26T05:51:35.642Z,10.00
2024-01-26T05:54:03.603Z,9.50
2024-01-26T05:56:31.028Z,9.33
2024-01-26T05:58:58.570Z,10.17
2024-01-26T06:01:26.491Z,9.67
2024-01-26T06:03:53.976Z,10.37
2024-01-26T06:06:21.507Z,9.47
2024-01-26T06:08:49.482Z,9.13
2024-01-26T06:11:18.631Z,8.37
2024-01-26T06:13:46.340Z,8.80
2024-01-26T06:16:16.816Z,7.50
2024-01-26T06:18:45.662Z,9.63
2024-01-26T06:21:13.728Z,10.13
2024-01-26T06:23:42.987Z,8.47
2024-01-26T06:26:10.446Z,7.77
2024-01-26T06:28:37.856Z,8.00
2024-01-26T06:31:05.325Z,8.17
2024-01-26T06:33:32.961Z,7.33
2024-01-26T06:36:00.491Z,7.90
2024-01-26T06:38:28.247Z,8.00
2024-01-26T06:40:55.858Z,8.20
2024-01-26T06:43:23.413Z,7.20
2024-01-26T06:45:50.763Z,8.93
2024-01-26T06:48:18.354Z,8.33
2024-01-26T06:50:46.042Z,7.97
2024-01-26T06:53:13.563Z,8.97
2024-01-26T06:55:42.313Z,11.20
2024-01-26T06:58:09.757Z,9.17
2024-01-26T07:00:37.211Z,8.60
2024-01-26T07:03:11.600Z,8.50
2024-01-26T07:05:40.654Z,8.80
2024-01-26T07:08:09.330Z,8.20
2024-01-26T07:10:36.782Z,7.47
2024-01-26T07:13:04.604Z,9.27
2024-01-26T07:15:33.097Z,9.17
2024-01-26T07:18:00.571Z,9.37
2024-01-26T07:20:29.494Z,8.30
2024-01-26T07:22:57.383Z,8.67
2024-01-26T07:25:24.753Z,8.40
2024-01-26T07:27:52.142Z,8.63
2024-01-26T07:30:20.534Z,8.93
2024-01-26T07:32:48.085Z,9.07
2024-01-26T07:35:15.771Z,8.73
2024-01-26T07:37:43.261Z,9.60
2024-01-26T07:40:11.605Z,10.00
2024-01-26T07:42:39.130Z,8.67
2024-01-26T07:45:06.923Z,11.27
2024-01-26T07:47:36.678Z,9.27
2024-01-26T07:50:08.001Z,9.50
2024-01-26T07:52:35.341Z,9.13
2024-01-26T07:55:02.691Z,9.50
2024-01-26T07:57:30.065Z,8.30
2024-01-26T07:59:57.621Z,8.37
2024-01-26T08:02:25.392Z,8.83
2024-01-26T08:04:55.729Z,9.17
2024-01-26T08:07:23.813Z,9.60
2024-01-26T08:09:51.480Z,9.37
2024-01-26T08:12:29.343Z,9.80
2024-01-26T08:17:36.000Z,8.40
2024-01-26T08:20:05.144Z,9.73
2024-01-26T08:22:34.097Z,8.83
2024-01-26T08:25:02.137Z,8.90
2024-01-26T08:27:29.979Z,9.77
2024-01-26T08:29:57.686Z,9.20
2024-01-26T08:32:25.185Z,8.63
2024-01-26T08:34:52.954Z,8.13
2024-01-26T08:37:20.809Z,8.93
2024-01-26T08:39:48.367Z,7.77
2024-01-26T08:42:16.085Z,8.87
2024-01-26T08:44:43.908Z,9.60
2024-01-26T08:47:11.332Z,8.07
2024-01-26T08:49:39.035Z,8.97
2024-01-26T08:52:07.091Z,8.83
2024-01-26T08:54:34.507Z,8.00
2024-01-26T08:57:02.151Z,8.37
2024-01-26T08:59:30.452Z,8.40
2024-01-26T09:01:57.892Z,9.23
2024-01-26T09:04:25.438Z,8.87
2024-01-26T09:06:59.959Z,9.07
2024-01-26T09:09:32.457Z,8.17
2024-01-26T09:12:00.079Z,7.40
2024-01-26T09:14:27.522Z,9.27
2024-01-26T09:16:54.987Z,8.80
2024-01-26T09:19:22.610Z,8.00
2024-01-26T09:21:52.680Z,9.00
2024-01-26T09:24:20.354Z,7.77
2024-01-26T09:26:47.928Z,7.43
2024-01-26T09:29:15.508Z,7.73
2024-01-26T09:31:43.042Z,7.80
2024-01-26T09:34:10.724Z,6.80
2024-01-26T09:36:38.221Z,8.30
2024-01-26T09:39:06.381Z,6.97
2024-01-26T09:41:34.117Z,6.67
2024-01-26T09:44:01.674Z,7.17
2024-01-26T09:46:32.304Z,6.43
2024-01-26T09:49:00.811Z,6.80
2024-01-26T09:51:29.058Z,6.70
2024-01-26T09:54:01.991Z,7.50
2024-01-26T09:56:33.219Z,7.10
2024-01-26T09:59:01.947Z,6.57
2024-01-26T10:01:30.119Z,6.73
2024-01-26T10:03:58.416Z,6.10
2024-01-26T10:06:26.464Z,6.23
2024-01-26T10:08:54.501Z,6.23
2024-01-26T10:11:21.922Z,6.37
2024-01-26T10:13:49.456Z,6.43
2024-01-26T10:16:16.866Z,6.80
2024-01-26T10:18:48.233Z,6.73
2024-01-26T10:21:18.694Z,6.57
2024-01-26T10:23:48.210Z,6.63
2024-01-26T10:26:15.875Z,6.80
2024-01-26T10:28:44.816Z,6.57
2024-01-26T10:31:12.537Z,7.00
2024-01-26T10:33:46.718Z,6.53
2024-01-26T10:36:17.140Z,6.70
2024-01-26T10:38:52.251Z,7.00
2024-01-26T10:41:22.800Z,6.80
2024-01-26T10:43:55.127Z,6.47
2024-01-26T10:46:24.143Z,6.03
2024-01-26T10:48:53.895Z,6.60
2024-01-26T10:51:23.372Z,6.13
2024-01-26T10:53:52.017Z,7.03
2024-01-26T10:56:19.487Z,6.67
2024-01-26T10:58:46.976Z,7.00
2024-01-26T11:01:15.525Z,5.90
2024-01-26T11:03:44.597Z,5.77
2024-01-26T11:06:15.117Z,6.23
2024-01-26T11:08:43.099Z,6.77
2024-01-26T11:11:11.345Z,6.53
2024-01-26T11:13:39.199Z,5.90
2024-01-26T11:16:08.555Z,6.20
2024-01-26T11:18:38.930Z,6.80
2024-01-26T11:21:06.747Z,5.83
2024-01-26T11:23:46.677Z,6.37
2024-01-26T11:26:18.695Z,6.13
2024-01-26T11:28:47.985Z,5.90
2024-01-26T11:31:15.600Z,6.37
2024-01-26T11:33:43.326Z,5.83
2024-01-26T11:36:14.474Z,5.67
2024-01-26T11:38:44.095Z,6.07
2024-01-26T11:41:12.717Z,6.03
2024-01-26T11:43:48.733Z,6.43
2024-01-26T11:46:18.463Z,6.13
2024-01-26T11:48:46.080Z,6.40
2024-01-26T11:51:15.543Z,6.70
2024-01-26T11:53:43.448Z,5.80
2024-01-26T11:56:11.114Z,5.97
2024-01-26T11:58:41.350Z,5.80
2024-01-26T12:01:09.028Z,6.77
2024-01-26T12:03:37.127Z,6.23
2024-01-26T12:06:05.632Z,5.90
2024-01-26T12:08:33.417Z,6.07
2024-01-26T12:11:02.240Z,6.10
2024-01-26T12:13:29.969Z,5.73
2024-01-26T12:15:59.084Z,6.00
2024-01-26T12:18:26.679Z,5.90
2024-01-26T12:20:54.304Z,6.10
2024-01-26T12:23:22.590Z,5.77
2024-01-26T12:25:56.263Z,6.13
2024-01-26T12:28:28.817Z,6.63
2024-01-26T12:30:56.429Z,7.80
2024-01-26T12:33:25.116Z,7.20
2024-01-26T12:35:56.829Z,7.47
2024-01-26T12:38:24.499Z,7.53
2024-01-26T12:40:51.958Z,7.47
2024-01-26T12:43:19.519Z,6.70
2024-01-26T12:45:55.874Z,6.90
2024-01-26T12:48:23.431Z,7.00
2024-01-26T12:50:51.033Z,6.63
2024-01-26T12:53:20.276Z,6.90
2024-01-26T12:55:48.749Z,7.17
2024-01-26T12:58:18.695Z,7.23
2024-01-26T13:00:46.211Z,7.33
2024-01-26T13:03:13.584Z,7.70
2024-01-26T13:05:41.091Z,7.77
2024-01-26T13:08:08.637Z,8.83
2024-01-26T13:10:37.123Z,8.70
2024-01-26T13:13:04.919Z,8.30
2024-01-26T13:18:00.905Z,7.53
2024-01-26T13:20:28.991Z,8.07
2024-01-26T13:22:56.569Z,7.80
2024-01-26T13:25:24.062Z,7.77
2024-01-26T13:27:51.592Z,7.67
2024-01-26T13:30:19.432Z,7.70
2024-01-26T13:32:49.604Z,7.53
2024-01-26T13:35:17.466Z,7.87
2024-01-26T13:37:45.419Z,7.97
2024-01-26T13:40:13.138Z,6.90
2024-01-26T13:42:43.140Z,7.87
2024-01-26T13:45:14.104Z,8.57
2024-01-26T13:47:44.601Z,7.90
2024-01-26T13:50:16.481Z,8.17
2024-01-26T13:52:43.987Z,7.40
2024-01-26T13:55:12.196Z,6.97
2024-01-26T13:57:44.197Z,6.33
2024-01-26T14:00:21.140Z,6.00
2024-01-26T14:02:52.558Z,5.33
2024-01-26T14:05:21.473Z,4.93
2024-01-26T14:07:51.115Z,6.30
2024-01-26T14:10:20.269Z,6.00
2024-01-26T14:12:47.662Z,6.90
2024-01-26T14:15:16.728Z,5.13
2024-01-26T14:17:48.496Z,6.07
2024-01-26T14:20:18.720Z,6.07
2024-01-26T14:22:46.125Z,5.67
2024-01-26T14:25:13.540Z,6.47
2024-01-26T14:27:41.081Z,3.90
2024-01-26T14:30:13.005Z,5.10
2024-01-26T14:32:40.600Z,5.73
2024-01-26T14:35:12.209Z,3.97
2024-01-26T14:37:44.451Z,5.50
2024-01-26T14:40:18.928Z,4.93
2024-01-26T14:42:49.141Z,3.57
2024-01-26T14:45:16.770Z,3.37
2024-01-26T14:47:47.715Z,3.37
2024-01-26T14:50:17.413Z,3.57
2024-01-26T14:52:44.903Z,3.00
2024-01-26T14:55:15.842Z,3.83
2024-01-26T14:57:46.767Z,3.17
2024-01-26T15:00:17.590Z,3.50
2024-01-26T15:02:45.520Z,3.23
2024-01-26T15:05:13.231Z,2.03
2024-01-26T15:07:43.230Z,1.30
2024-01-26T15:10:13.644Z,1.23
2024-01-26T15:12:41.144Z,1.00
2024-01-26T15:15:09.606Z,0.67
2024-01-26T15:17:37.203Z,0.70
2024-01-26T15:20:10.733Z,0.60
2024-01-26T15:22:38.341Z,0.67
2024-01-26T15:25:06.562Z,0.77
2024-01-26T15:27:34.098Z,0.53
2024-01-26T15:30:01.510Z,0.20
2024-01-26T15:32:32.369Z,0.50
2024-01-26T15:35:00.026Z,0.30
2024-01-26T15:37:27.448Z,0.33
2024-01-26T15:39:54.928Z,0.30
2024-01-26T15:42:22.958Z,0.33
2024-01-26T15:44:50.641Z,0.40
2024-01-26T15:47:18.438Z,0.50
2024-01-26T15:49:46.022Z,0.30
2024-01-26T15:52:13.469Z,0.50
2024-01-26T15:54:40.816Z,0.40
2024-01-26T15:57:09.170Z,0.50
2024-01-26T15:59:36.722Z,0.37
2024-01-26T16:02:04.532Z,0.30
2024-01-26T16:04:32.056Z,0.43
2024-01-26T16:06:59.518Z,0.20
2024-01-26T16:09:26.936Z,0.47
2024-01-26T16:11:54.485Z,0.40
2024-01-26T16:14:21.974Z,0.40
2024-01-26T16:16:49.389Z,0.20
2024-01-26T16:19:17.048Z,0.27
2024-01-26T16:21:44.431Z,0.70
2024-01-26T16:24:12.083Z,0.60
2024-01-26T16:26:39.949Z,0.40
2024-01-26T16:29:08.947Z,0.60
2024-01-26T16:31:37.305Z,0.80
2024-01-26T16:34:06.432Z,0.47
2024-01-26T16:36:35.360Z,0.60
2024-01-26T16:39:06.071Z,0.60
2024-01-26T16:41:37.996Z,0.70
2024-01-26T16:44:05.729Z,0.60
2024-01-26T16:46:33.402Z,0.63
2024-01-26T16:49:00.869Z,0.60
2024-01-26T16:51:30.193Z,0.50
2024-01-26T16:53:57.690Z,0.63
2024-01-26T16:56:25.176Z,0.60
2024-01-26T16:58:52.517Z,0.43
2024-01-26T17:01:21.225Z,0.60
2024-01-26T17:03:48.640Z,0.70
2024-01-26T17:06:16.416Z,0.67
2024-01-26T17:08:43.823Z,0.57
2024-01-26T17:11:11.705Z,0.50
2024-01-26T17:13:39.159Z,0.87
2024-01-26T17:16:08.840Z,0.40
2024-01-26T17:18:37.741Z,0.83
2024-01-26T17:21:07.238Z,0.60
2024-01-26T17:23:37.483Z,0.57
2024-01-26T17:26:05.616Z,0.50
2024-01-26T17:28:33.138Z,0.50
2024-01-26T17:31:00.682Z,0.20
2024-01-26T17:33:28.223Z,0.47
2024-01-26T17:35:55.833Z,0.60
2024-01-26T17:38:23.422Z,0.40
2024-01-26T17:40:50.760Z,0.30
2024-01-26T17:43:18.126Z,0.50
2024-01-26T17:45:45.626Z,0.93
2024-01-26T17:48:13.416Z,0.67
2024-01-26T17:50:41.087Z,0.70
2024-01-26T17:53:08.643Z,0.40
2024-01-26T17:55:41.028Z,0.60
2024-01-26T17:58:10.631Z,0.50
2024-01-26T18:00:39.635Z,0.80
2024-01-26T18:03:08.850Z,0.87
2024-01-26T18:05:36.483Z,0.60
2024-01-26T18:08:04.267Z,0.77
2024-01-26T18:10:31.868Z,0.80
2024-01-26T18:12:59.386Z,0.70
2024-01-26T18:15:26.875Z,1.00
2024-01-26T18:17:54.486Z,0.90
2024-01-26T18:20:22.341Z,0.93
2024-01-26T18:22:49.831Z,0.63
2024-01-26T18:25:17.623Z,1.00
2024-01-26T18:27:45.169Z,0.90
2024-01-26T18:30:13.894Z,1.20
2024-01-26T18:32:41.587Z,1.10
2024-01-26T18:35:11.069Z,1.23
2024-01-26T18:37:38.943Z,1.17
2024-01-26T18:40:10.390Z,1.53
2024-01-26T18:42:37.963Z,1.20
2024-01-26T18:45:06.787Z,1.43
2024-01-26T18:47:34.184Z,1.60
2024-01-26T18:50:01.859Z,1.53
2024-01-26T18:52:30.858Z,1.60
2024-01-26T18:54:58.162Z,1.30
2024-01-26T18:57:25.570Z,1.10
2024-01-26T18:59:53.857Z,1.50
2024-01-26T19:02:21.650Z,1.80
2024-01-26T19:04:49.452Z,1.97
2024-01-26T19:07:17.024Z,1.63
2024-01-26T19:09:44.481Z,1.40
2024-01-26T19:12:12.028Z,1.93
2024-01-26T19:14:39.877Z,2.00
2024-01-26T19:17:08.919Z,1.90
2024-01-26T19:19:40.082Z,1.90
2024-01-26T19:22:07.792Z,1.63
2024-01-26T19:24:35.916Z,1.70
2024-01-26T19:27:05.962Z,2.27
2024-01-26T19:29:36.252Z,1.40
2024-01-26T19:32:04.410Z,1.73
2024-01-26T19:34:33.195Z,1.87
2024-01-26T19:37:02.706Z,1.93
2024-01-26T19:39:30.282Z,2.20
2024-01-26T19:41:58.656Z,2.57
2024-01-26T19:44:26.055Z,1.83
2024-01-26T19:46:53.578Z,2.47
2024-01-26T19:49:21.732Z,1.67
2024-01-26T19:51:52.451Z,1.17
2024-01-26T19:54:20.033Z,3.07
2024-01-26T19:56:47.537Z,1.93
2024-01-26T19:59:15.350Z,2.00
2024-01-26T20:01:43.785Z,2.20
2024-01-26T20:04:11.603Z,2.00
2024-01-26T20:06:39.419Z,2.80
2024-01-26T20:09:07.625Z,2.20
2024-01-26T20:11:36.402Z,1.87
2024-01-26T20:14:03.963Z,2.10
2024-01-26T20:16:31.642Z,2.37
2024-01-26T20:18:59.197Z,2.60
2024-01-26T20:21:26.968Z,2.67
2024-01-26T20:23:55.481Z,2.73
2024-01-26T20:26:24.648Z,2.17
2024-01-26T20:28:52.522Z,2.23
2024-01-26T20:31:21.617Z,2.37
2024-01-26T20:33:49.254Z,1.90
2024-01-26T20:36:17.246Z,1.90
2024-01-26T20:38:46.111Z,2.50
2024-01-26T20:41:13.726Z,2.07
2024-01-26T20:43:41.371Z,2.67
2024-01-26T20:46:10.235Z,2.00
2024-01-26T20:48:39.155Z,2.27
2024-01-26T20:51:06.831Z,2.83
2024-01-26T20:53:34.531Z,2.53
2024-01-26T20:56:01.990Z,3.03
2024-01-26T20:58:29.537Z,2.27
2024-01-26T21:00:58.040Z,2.20
2024-01-26T21:03:25.687Z,3.03
2024-01-26T21:05:53.346Z,2.73
2024-01-26T21:08:21.046Z,1.87
2024-01-26T21:10:50.107Z,2.80
2024-01-26T21:13:18.229Z,2.73
2024-01-26T21:15:46.595Z,2.87
2024-01-26T21:18:16.881Z,2.80
2024-01-26T21:20:44.734Z,2.20
2024-01-26T21:23:12.189Z,2.30
2024-01-26T21:25:39.866Z,2.80
2024-01-26T21:28:07.813Z,3.37
2024-01-26T21:30:35.577Z,2.77
2024-01-26T21:33:05.749Z,2.70
2024-01-26T21:35:33.511Z,2.30
2024-01-26T21:38:01.041Z,2.60
2024-01-26T21:40:28.604Z,2.63
2024-01-26T21:42:56.114Z,3.10
2024-01-26T21:45:25.096Z,2.77
2024-01-26T21:47:52.833Z,2.70
2024-01-26T21:50:20.560Z,2.70
2024-01-26T21:52:50.014Z,2.20
2024-01-26T21:55:17.964Z,3.70
2024-01-26T21:57:45.392Z,3.33
2024-01-26T22:00:14.521Z,2.40
2024-01-26T22:02:42.034Z,3.10
2024-01-26T22:05:13.162Z,2.97
2024-01-26T22:07:41.082Z,2.97
2024-01-26T22:10:09.567Z,2.60
2024-01-26T22:12:37.087Z,2.37
2024-01-26T22:15:06.312Z,3.27
2024-01-26T22:17:34.482Z,2.73
2024-01-26T22:20:02.550Z,2.73
2024-01-26T22:22:30.019Z,2.43
2024-01-26T22:24:58.113Z,2.73
2024-01-26T22:27:25.693Z,2.47
2024-01-26T22:29:56.800Z,2.43
2024-01-26T22:32:24.427Z,3.00
2024-01-26T22:34:52.314Z,2.33
2024-01-26T22:37:19.924Z,2.40
2024-01-26T22:39:50.381Z,3.23
2024-01-26T22:42:17.888Z,1.07
2024-01-26T22:44:45.339Z,2.87
2024-01-26T22:47:12.747Z,3.00
2024-01-26T22:49:40.241Z,3.47
2024-01-26T22:52:07.934Z,2.60
2024-01-26T22:54:35.322Z,2.67
2024-01-26T22:57:03.695Z,2.90
2024-01-26T22:59:31.162Z,2.30
2024-01-26T23:01:58.468Z,3.20
2024-01-26T23:04:25.969Z,2.17
2024-01-26T23:06:53.549Z,2.83
2024-01-26T23:09:21.169Z,2.50
2024-01-26T23:11:48.704Z,2.90
2024-01-26T23:14:16.177Z,3.00
2024-01-26T23:16:43.697Z,2.47
2024-01-26T23:19:11.410Z,3.00
2024-01-26T23:21:38.868Z,3.20
2024-01-26T23:24:08.142Z,2.37
2024-01-26T23:26:35.569Z,2.73
2024-01-26T23:29:02.929Z,2.10
2024-01-26T23:31:30.442Z,3.10
2024-01-26T23:33:57.976Z,2.60
2024-01-26T23:36:25.571Z,1.30
2024-01-26T23:38:54.099Z,2.50
2024-01-26T23:41:21.539Z,3.23
2024-01-26T23:43:48.964Z,2.03
2024-01-26T23:46:16.953Z,3.17
2024-01-26T23:48:44.662Z,2.57
2024-01-26T23:51:12.434Z,2.47
2024-01-26T23:53:39.795Z,2.43
2024-01-26T23:56:07.664Z,2.57
2024-01-26T23:58:35.021Z,2.10
